createdAt,value
2022-09-27T00:00:17.734Z,99686.94
2022-09-27T00:02:50.696Z,99691.25
2022-09-27T00:05:24.166Z,99692.16
2022-09-27T00:07:57.566Z,99688.19
2022-09-27T00:10:32.506Z,99693.72
2022-09-27T00:13:05.178Z,99698.59
2022-09-27T00:15:37.840Z,99690.69
2022-09-27T00:18:10.698Z,99700.16
2022-09-27T00:20:43.350Z,99698.31
2022-09-27T00:23:16.134Z,99704.81
2022-09-27T00:26:00.275Z,99704.06
2022-09-27T00:28:33.751Z,99701.72
2022-09-27T00:31:18.399Z,99695.00
2022-09-27T00:33:52.463Z,99704.06
2022-09-27T00:36:25.827Z,99717.28
2022-09-27T00:38:59.996Z,99727.31
2022-09-27T00:41:36.114Z,99728.72
2022-09-27T00:44:42.843Z,99734.63
2022-09-27T00:47:22.613Z,99746.06
2022-09-27T00:50:00.051Z,99749.53
2022-09-27T00:52:38.087Z,99741.09
2022-09-27T00:55:14.169Z,99743.53
2022-09-27T00:57:49.701Z,99733.34
2022-09-27T01:00:23.559Z,99739.22
2022-09-27T01:02:58.145Z,99742.00
2022-09-27T01:05:31.409Z,99733.28
2022-09-27T01:08:04.172Z,99728.56
2022-09-27T01:10:45.957Z,99726.28
2022-09-27T01:13:26.279Z,99731.09
2022-09-27T01:16:07.301Z,99730.72
2022-09-27T01:18:52.242Z,99735.44
2022-09-27T01:21:45.998Z,99738.03
2022-09-27T01:24:48.713Z,99732.66
2022-09-27T01:27:41.853Z,99719.34
2022-09-27T01:30:24.497Z,99708.19
2022-09-27T01:33:18.863Z,99706.63
2022-09-27T01:36:07.268Z,99705.75
2022-09-27T01:38:51.966Z,99716.09
2022-09-27T01:41:33.816Z,99707.47
2022-09-27T01:44:40.236Z,99714.91
2022-09-27T01:47:22.821Z,99707.66
2022-09-27T01:50:21.741Z,99708.44
2022-09-27T01:52:59.969Z,99708.00
2022-09-27T01:55:39.181Z,99708.72
2022-09-27T01:58:44.641Z,99704.47
2022-09-27T02:01:22.719Z,99708.44
2022-09-27T02:04:01.705Z,99708.66
2022-09-27T02:06:59.418Z,99704.47
2022-09-27T02:09:40.087Z,99714.81
2022-09-27T02:12:31.885Z,99711.94
2022-09-27T02:15:08.288Z,99718.13
2022-09-27T02:17:45.219Z,99719.91
2022-09-27T02:20:30.988Z,99720.91
2022-09-27T02:23:15.745Z,99706.22
2022-09-27T02:25:57.046Z,99720.91
2022-09-27T02:28:34.545Z,99722.34
2022-09-27T02:31:07.492Z,99710.72
2022-09-27T02:33:46.524Z,99726.53
2022-09-27T02:36:21.313Z,99726.91
2022-09-27T02:38:54.124Z,99719.88
2022-09-27T02:41:28.110Z,99721.00
2022-09-27T02:44:05.168Z,99712.28
2022-09-27T02:46:56.325Z,99709.16
2022-09-27T02:49:45.878Z,99707.75
2022-09-27T02:52:46.756Z,99703.34
2022-09-27T02:55:25.566Z,99711.28
2022-09-27T02:58:16.696Z,99701.44
2022-09-27T03:01:13.266Z,99709.22
2022-09-27T03:03:55.120Z,99714.06
2022-09-27T03:06:30.061Z,99710.13
2022-09-27T03:09:04.226Z,99724.41
2022-09-27T03:11:36.972Z,99715.28
2022-09-27T03:14:09.764Z,99714.59
2022-09-27T03:16:48.782Z,99721.91
2022-09-27T03:19:59.677Z,99728.47
2022-09-27T03:22:52.626Z,99743.38
2022-09-27T03:25:26.878Z,99752.56
2022-09-27T03:27:59.727Z,99742.38
2022-09-27T03:30:32.562Z,99735.34
2022-09-27T03:33:05.550Z,99749.22
2022-09-27T03:35:50.186Z,99740.94
2022-09-27T03:38:22.872Z,99739.75
2022-09-27T03:40:57.111Z,99735.34
2022-09-27T03:43:29.978Z,99757.47
2022-09-27T03:46:07.182Z,99742.63
2022-09-27T03:48:39.970Z,99744.91
2022-09-27T03:51:13.110Z,99733.16
2022-09-27T03:53:45.826Z,99740.34
2022-09-27T03:56:20.140Z,99730.09
2022-09-27T03:58:52.876Z,99720.69
2022-09-27T04:01:26.121Z,99717.09
2022-09-27T04:04:07.578Z,99715.06
2022-09-27T04:06:43.102Z,99719.38
2022-09-27T04:09:16.218Z,99734.00
2022-09-27T04:12:06.821Z,99745.84
2022-09-27T04:14:39.473Z,99734.03
2022-09-27T04:17:32.067Z,99725.00
2022-09-27T04:20:23.461Z,99716.13
2022-09-27T04:22:56.514Z,99716.72
2022-09-27T04:25:29.270Z,99724.66
2022-09-27T04:28:06.699Z,99737.22
2022-09-27T04:30:41.349Z,99751.00
2022-09-27T04:33:40.582Z,99754.69
2022-09-27T04:36:26.406Z,99745.13
2022-09-27T04:39:13.686Z,99740.53
2022-09-27T04:41:48.709Z,99737.25
2022-09-27T04:44:22.720Z,99730.19
2022-09-27T04:46:56.546Z,99726.66
2022-09-27T04:49:29.218Z,99724.69
2022-09-27T04:52:02.552Z,99714.44
2022-09-27T04:54:35.219Z,99721.91
2022-09-27T04:57:18.239Z,99718.41
2022-09-27T04:59:52.502Z,99707.47
2022-09-27T05:02:27.447Z,99710.50
2022-09-27T05:05:20.428Z,99709.44
2022-09-27T05:07:53.419Z,99708.28
2022-09-27T05:10:38.103Z,99715.78
2022-09-27T05:13:11.268Z,99704.69
2022-09-27T05:15:45.444Z,99697.69
2022-09-27T05:18:41.898Z,99699.44
2022-09-27T05:21:46.871Z,99695.72
2022-09-27T05:24:20.190Z,99701.28
2022-09-27T05:26:53.480Z,99697.69
2022-09-27T05:29:29.388Z,99698.88
2022-09-27T05:32:17.533Z,99696.13
2022-09-27T05:34:53.645Z,99695.78
2022-09-27T05:37:26.451Z,99696.97
2022-09-27T05:40:16.999Z,99706.03
2022-09-27T05:42:56.653Z,99700.91
2022-09-27T05:45:29.279Z,99709.66
2022-09-27T05:48:12.537Z,99710.81
2022-09-27T05:50:51.501Z,99702.13
2022-09-27T05:53:24.247Z,99706.16
2022-09-27T05:55:57.014Z,99714.81
2022-09-27T05:58:38.529Z,99717.97
2022-09-27T06:01:20.494Z,99715.56
2022-09-27T06:04:32.839Z,99709.28
2022-09-27T06:07:30.780Z,99723.44
2022-09-27T06:10:03.743Z,99713.19
2022-09-27T06:12:36.584Z,99716.41
2022-09-27T06:15:14.625Z,99714.81
2022-09-27T06:17:50.564Z,99715.66
2022-09-27T06:20:26.835Z,99718.28
2022-09-27T06:23:05.878Z,99721.88
2022-09-27T06:25:39.410Z,99725.00
2022-09-27T06:28:24.847Z,99728.94
2022-09-27T06:31:01.648Z,99727.41
2022-09-27T06:33:58.074Z,99730.56
2022-09-27T06:36:33.340Z,99727.41
2022-09-27T06:39:06.407Z,99721.75
2022-09-27T06:41:48.155Z,99719.50
2022-09-27T06:44:35.938Z,99718.28
2022-09-27T06:47:43.789Z,99722.66
2022-09-27T06:50:30.372Z,99726.19
2022-09-27T06:53:04.390Z,99732.47
2022-09-27T06:55:37.577Z,99731.28
2022-09-27T06:58:29.672Z,99724.22
2022-09-27T07:01:35.683Z,99733.25
2022-09-27T07:04:31.713Z,99746.53
2022-09-27T07:07:10.815Z,99749.44
2022-09-27T07:09:47.368Z,99746.25
2022-09-27T07:12:24.425Z,99736.00
2022-09-27T07:14:57.240Z,99736.00
2022-09-27T07:17:30.042Z,99732.94
2022-09-27T07:20:03.798Z,99736.72
2022-09-27T07:22:40.609Z,99739.84
2022-09-27T07:25:15.965Z,99733.81
2022-09-27T07:27:50.083Z,99741.28
2022-09-27T07:30:23.423Z,99746.03
2022-09-27T07:32:59.220Z,99750.28
2022-09-27T07:35:33.353Z,99745.13
2022-09-27T07:38:08.299Z,99747.50
2022-09-27T07:40:43.035Z,99739.25
2022-09-27T07:43:16.270Z,99753.03
2022-09-27T07:45:49.682Z,99767.53
2022-09-27T07:48:39.360Z,99765.59
2022-09-27T07:51:19.862Z,99784.06
2022-09-27T07:53:58.971Z,99802.19
2022-09-27T07:56:52.896Z,99802.63
2022-09-27T07:59:27.504Z,99802.63
2022-09-27T08:02:00.573Z,99799.63
2022-09-27T08:04:33.376Z,99811.28
2022-09-27T08:07:06.360Z,99801.94
2022-09-27T08:09:39.307Z,99799.56
2022-09-27T08:12:13.453Z,99797.72
2022-09-27T08:14:48.441Z,99800.81
2022-09-27T08:17:21.658Z,99802.22
2022-09-27T08:20:33.267Z,99808.88
2022-09-27T08:23:24.700Z,99808.84
2022-09-27T08:26:10.741Z,99809.28
2022-09-27T08:29:03.589Z,99808.44
2022-09-27T08:31:39.540Z,99810.75
2022-09-27T08:34:13.420Z,99811.38
2022-09-27T08:36:46.122Z,99803.56
2022-09-27T08:39:19.149Z,99802.38
2022-09-27T08:42:14.421Z,99803.81
2022-09-27T08:44:59.735Z,99805.81
2022-09-27T08:47:39.571Z,99794.78
2022-09-27T08:50:23.904Z,99798.94
2022-09-27T08:53:01.178Z,99796.47
2022-09-27T08:55:38.473Z,99788.56
2022-09-27T08:58:24.390Z,99799.53
2022-09-27T09:01:02.429Z,99793.53
2022-09-27T09:03:45.077Z,99796.41
2022-09-27T09:06:23.466Z,99797.09
2022-09-27T09:09:06.897Z,99818.31
2022-09-27T09:12:10.279Z,99831.81
2022-09-27T09:15:04.934Z,99834.66
2022-09-27T09:17:53.749Z,99837.84
2022-09-27T09:21:00.493Z,99838.22
2022-09-27T09:23:55.257Z,99851.78
2022-09-27T09:26:36.114Z,99851.44
2022-09-27T09:29:25.727Z,99851.19
2022-09-27T09:32:09.083Z,99847.22
2022-09-27T09:34:48.044Z,99839.19
2022-09-27T09:37:25.110Z,99826.19
2022-09-27T09:40:08.142Z,99811.97
2022-09-27T09:42:47.757Z,99811.63
2022-09-27T09:45:25.525Z,99812.81
2022-09-27T09:48:04.536Z,99803.81
2022-09-27T09:50:44.068Z,99803.88
2022-09-27T09:53:22.243Z,99799.09
2022-09-27T09:56:01.685Z,99795.63
2022-09-27T09:58:41.529Z,99804.66
2022-09-27T10:01:22.053Z,99802.72
2022-09-27T10:03:56.151Z,99808.13
2022-09-27T10:06:32.141Z,99806.09
2022-09-27T10:09:07.234Z,99813.59
2022-09-27T10:11:48.121Z,99815.19
2022-09-27T10:14:35.109Z,99815.94
2022-09-27T10:17:15.587Z,99802.56
2022-09-27T10:19:49.544Z,99820.59
2022-09-27T10:22:29.152Z,99818.72
2022-09-27T10:25:08.974Z,99820.19
2022-09-27T10:27:51.392Z,99810.78
2022-09-27T10:30:32.899Z,99806.34
2022-09-27T10:33:18.991Z,99806.34
2022-09-27T10:35:56.205Z,99800.84
2022-09-27T10:38:37.164Z,99797.38
2022-09-27T10:41:28.359Z,99803.94
2022-09-27T10:44:24.846Z,99806.66
2022-09-27T10:47:09.359Z,99794.00
2022-09-27T10:50:45.939Z,99802.78
2022-09-27T10:53:27.397Z,99799.50
2022-09-27T10:56:08.385Z,99804.94
2022-09-27T10:58:41.702Z,99806.41
2022-09-27T11:01:19.690Z,99801.59
2022-09-27T11:04:30.607Z,99809.09
2022-09-27T11:07:18.453Z,99802.38
2022-09-27T11:10:03.043Z,99805.47
2022-09-27T11:12:42.042Z,99810.28
2022-09-27T11:15:20.950Z,99809.06
2022-09-27T11:18:05.048Z,99808.56
2022-09-27T11:20:43.551Z,99794.09
2022-09-27T11:23:40.435Z,99803.31
2022-09-27T11:26:30.821Z,99807.06
2022-09-27T11:29:19.381Z,99806.81
2022-09-27T11:32:20.493Z,99803.59
2022-09-27T11:35:06.970Z,99801.72
2022-09-27T11:37:49.087Z,99802.47
2022-09-27T11:40:32.940Z,99797.44
2022-09-27T11:43:19.846Z,99789.41
2022-09-27T11:46:16.670Z,99789.94
2022-09-27T11:49:11.118Z,99784.84
2022-09-27T11:51:59.309Z,99781.91
2022-09-27T11:54:47.096Z,99782.69
2022-09-27T11:57:26.399Z,99776.78
2022-09-27T12:00:13.890Z,99778.34
2022-09-27T12:03:21.149Z,99771.41
2022-09-27T12:06:08.651Z,99772.97
2022-09-27T12:09:02.584Z,99768.66
2022-09-27T12:11:40.737Z,99768.09
2022-09-27T12:14:26.575Z,99776.19
2022-09-27T12:17:05.948Z,99759.97
2022-09-27T12:19:45.386Z,99761.88
2022-09-27T12:22:47.046Z,99762.44
2022-09-27T12:25:22.138Z,99767.44
2022-09-27T12:28:10.994Z,99759.00
2022-09-27T12:30:55.063Z,99757.78
2022-09-27T12:33:40.636Z,99754.34
2022-09-27T12:36:19.419Z,99753.22
2022-09-27T12:38:57.356Z,99760.22
2022-09-27T12:41:34.966Z,99752.59
2022-09-27T12:44:23.308Z,99754.69
2022-09-27T12:47:07.750Z,99751.91
2022-09-27T12:49:54.671Z,99757.66
2022-09-27T12:52:39.837Z,99757.31
2022-09-27T12:55:24.590Z,99749.81
2022-09-27T12:58:15.856Z,99753.25
2022-09-27T13:00:59.161Z,99750.59
2022-09-27T13:03:44.662Z,99745.84
2022-09-27T13:06:35.255Z,99751.84
2022-09-27T13:09:44.036Z,99747.63
2022-09-27T13:12:20.597Z,99736.09
2022-09-27T13:15:03.002Z,99734.19
2022-09-27T13:17:53.351Z,99729.34
2022-09-27T13:20:53.080Z,99729.09
2022-09-27T13:23:54.975Z,99728.41
2022-09-27T13:26:51.659Z,99726.22
2022-09-27T13:29:34.268Z,99728.41
2022-09-27T13:32:20.733Z,99718.22
2022-09-27T13:35:20.728Z,99723.56
2022-09-27T13:38:00.504Z,99716.03
2022-09-27T13:40:44.457Z,99721.22
2022-09-27T13:43:43.367Z,99714.03
2022-09-27T13:46:53.375Z,99715.91
2022-09-27T13:49:32.659Z,99710.91
2022-09-27T13:52:21.831Z,99715.81
2022-09-27T13:55:28.589Z,99711.59
2022-09-27T13:58:03.685Z,99711.69
2022-09-27T14:00:44.527Z,99703.94
2022-09-27T14:03:25.158Z,99712.69
2022-09-27T14:06:03.549Z,99713.56
2022-09-27T14:08:46.792Z,99714.28
2022-09-27T14:11:24.570Z,99712.53
2022-09-27T14:13:58.822Z,99709.97
2022-09-27T14:16:41.694Z,99707.31
2022-09-27T14:19:17.739Z,99702.22
2022-09-27T14:21:50.717Z,99695.84
2022-09-27T14:24:47.225Z,99684.78
2022-09-27T14:27:26.757Z,99682.03
2022-09-27T14:30:15.600Z,99684.97
2022-09-27T14:32:54.054Z,99675.34
2022-09-27T14:35:53.662Z,99673.59
2022-09-27T14:38:38.196Z,99679.56
2022-09-27T14:41:19.385Z,99684.34
2022-09-27T14:43:52.260Z,99679.34
2022-09-27T14:46:28.205Z,99688.41
2022-09-27T14:49:13.929Z,99683.56
2022-09-27T14:51:52.477Z,99676.69
2022-09-27T14:54:27.278Z,99675.59
2022-09-27T14:57:00.742Z,99684.09
2022-09-27T14:59:37.811Z,99679.97
2022-09-27T15:02:18.885Z,99677.72
2022-09-27T15:04:54.693Z,99669.53
2022-09-27T15:07:28.458Z,99667.22
2022-09-27T15:10:01.376Z,99663.56
2022-09-27T15:12:35.600Z,99657.19
2022-09-27T15:15:14.157Z,99653.19
2022-09-27T15:17:47.861Z,99659.59
2022-09-27T15:20:31.035Z,99653.41
2022-09-27T15:23:07.641Z,99647.88
2022-09-27T15:25:43.534Z,99648.91
2022-09-27T15:28:19.486Z,99646.72
2022-09-27T15:30:57.366Z,99644.59
2022-09-27T15:33:32.943Z,99649.03
2022-09-27T15:36:09.565Z,99640.16
2022-09-27T15:38:47.686Z,99638.16
2022-09-27T15:41:21.669Z,99636.88
2022-09-27T15:43:54.605Z,99641.44
2022-09-27T15:46:39.163Z,99640.34
2022-09-27T15:49:33.702Z,99628.75
2022-09-27T15:52:09.508Z,99622.22
2022-09-27T15:54:42.248Z,99623.78
2022-09-27T15:57:15.211Z,99623.97
2022-09-27T15:59:48.131Z,99627.16
2022-09-27T16:02:22.096Z,99626.19
2022-09-27T16:04:54.894Z,99620.47
2022-09-27T16:07:29.106Z,99622.53
2022-09-27T16:10:01.961Z,99616.78
2022-09-27T16:12:34.797Z,99622.25
2022-09-27T16:15:08.747Z,99612.75
2022-09-27T16:17:42.742Z,99618.59
2022-09-27T16:20:19.779Z,99622.00
2022-09-27T16:22:55.044Z,99615.00
2022-09-27T16:25:28.903Z,99611.56
2022-09-27T16:28:02.956Z,99609.97
2022-09-27T16:30:35.916Z,99602.13
2022-09-27T16:33:08.703Z,99608.97
2022-09-27T16:35:42.330Z,99618.44
2022-09-27T16:38:17.878Z,99609.31
2022-09-27T16:40:53.524Z,99598.25
2022-09-27T16:43:28.306Z,99605.34
2022-09-27T16:46:11.783Z,99606.56
2022-09-27T16:48:44.880Z,99598.25
2022-09-27T16:51:36.847Z,99598.94
2022-09-27T16:54:12.542Z,99594.94
2022-09-27T16:56:52.169Z,99594.63
2022-09-27T16:59:29.171Z,99582.97
2022-09-27T17:02:02.113Z,99589.09
2022-09-27T17:04:35.821Z,99588.44
2022-09-27T17:07:09.109Z,99582.19
2022-09-27T17:09:43.449Z,99585.91
2022-09-27T17:12:16.822Z,99583.22
2022-09-27T17:14:49.612Z,99603.94
2022-09-27T17:17:22.816Z,99605.41
2022-09-27T17:19:55.489Z,99636.44
2022-09-27T17:22:28.400Z,99637.66
2022-09-27T17:25:02.734Z,99612.16
2022-09-27T17:27:35.875Z,99608.16
2022-09-27T17:30:09.113Z,99603.94
2022-09-27T17:32:42.133Z,99601.78
2022-09-27T17:35:15.838Z,99594.75
2022-09-27T17:37:50.682Z,99597.63
2022-09-27T17:40:24.941Z,99597.47
2022-09-27T17:42:58.383Z,99565.38
2022-09-27T17:45:31.041Z,99597.50
2022-09-27T17:48:23.705Z,99624.25
2022-09-27T17:50:56.753Z,99618.38
2022-09-27T17:53:32.982Z,99634.00
2022-09-27T17:56:10.085Z,99637.53
2022-09-27T17:58:47.580Z,99646.16
2022-09-27T18:01:22.465Z,99623.97
2022-09-27T18:03:57.574Z,99625.47
2022-09-27T18:06:30.528Z,99615.97
2022-09-27T18:09:03.255Z,99610.63
2022-09-27T18:11:39.033Z,99618.19
2022-09-27T18:14:12.465Z,99597.31
2022-09-27T18:16:45.564Z,99602.84
2022-09-27T18:19:18.581Z,99603.69
2022-09-27T18:21:52.070Z,99602.84
2022-09-27T18:24:26.267Z,99606.81
2022-09-27T18:27:01.008Z,99607.50
2022-09-27T18:29:34.058Z,99604.81
2022-09-27T18:32:06.835Z,99604.53
2022-09-27T18:34:40.305Z,99597.47
2022-09-27T18:37:12.980Z,99604.53
2022-09-27T18:39:46.272Z,99597.81
2022-09-27T18:42:20.466Z,99597.81
2022-09-27T18:44:53.645Z,99598.69
2022-09-27T18:47:26.240Z,99597.81
2022-09-27T18:49:59.226Z,99595.59
2022-09-27T18:52:31.834Z,99594.00
2022-09-27T18:55:04.967Z,99593.66
2022-09-27T18:57:39.277Z,99596.19
2022-09-27T19:00:13.168Z,99589.84
2022-09-27T19:02:45.995Z,99591.81
2022-09-27T19:05:18.777Z,99591.75
2022-09-27T19:07:51.613Z,99585.47
2022-09-27T19:10:24.363Z,99577.19
2022-09-27T19:12:58.342Z,99588.47
2022-09-27T19:15:31.084Z,99582.63
2022-09-27T19:18:03.970Z,99583.50
2022-09-27T19:20:37.312Z,99582.63
2022-09-27T19:23:10.018Z,99594.53
2022-09-27T19:25:42.933Z,99601.00
2022-09-27T19:28:17.287Z,99584.81
2022-09-27T19:30:50.236Z,99578.16
2022-09-27T19:33:22.911Z,99598.22
2022-09-27T19:36:01.090Z,99608.09
2022-09-27T19:38:35.806Z,99607.03
2022-09-27T19:41:10.598Z,99604.75
2022-09-27T19:43:47.335Z,99612.69
2022-09-27T19:46:22.589Z,99626.47
2022-09-27T19:48:56.207Z,99641.44
2022-09-27T19:51:29.090Z,99654.59
2022-09-27T19:54:02.094Z,99664.41
2022-09-27T19:56:34.959Z,99652.25
2022-09-27T19:59:09.162Z,99651.19
2022-09-27T20:01:42.674Z,99649.03
2022-09-27T20:04:15.958Z,99650.72
2022-09-27T20:06:48.829Z,99629.59
2022-09-27T20:09:21.824Z,99637.56
2022-09-27T20:11:54.861Z,99645.13
2022-09-27T20:14:28.808Z,99637.69
2022-09-27T20:17:01.769Z,99626.84
2022-09-27T20:19:35.119Z,99628.38
2022-09-27T20:22:08.004Z,99628.84
2022-09-27T20:24:40.947Z,99629.25
2022-09-27T20:27:13.994Z,99629.66
2022-09-27T20:29:48.762Z,99623.50
2022-09-27T20:32:27.754Z,99624.22
2022-09-27T20:35:00.965Z,99626.59
2022-09-27T20:37:33.662Z,99625.81
2022-09-27T20:40:07.631Z,99634.44
2022-09-27T20:42:40.314Z,99630.81
2022-09-27T20:45:14.286Z,99629.72
2022-09-27T20:47:47.318Z,99634.34
2022-09-27T20:50:20.031Z,99624.88
2022-09-27T20:52:52.649Z,99620.47
2022-09-27T20:55:25.316Z,99617.72
2022-09-27T20:57:58.057Z,99595.69
2022-09-27T21:00:32.134Z,99584.59
2022-09-27T21:03:04.844Z,99580.22
2022-09-27T21:05:37.467Z,99574.00
2022-09-27T21:08:10.163Z,99574.31
2022-09-27T21:10:42.866Z,99571.47
2022-09-27T21:13:15.641Z,99562.53
2022-09-27T21:15:49.872Z,99561.75
2022-09-27T21:18:24.540Z,99562.16
2022-09-27T21:21:01.802Z,99565.28
2022-09-27T21:23:36.815Z,99563.66
2022-09-27T21:26:12.630Z,99560.03
2022-09-27T21:28:47.119Z,99567.06
2022-09-27T21:31:23.282Z,99561.53
2022-09-27T21:33:59.006Z,99563.66
2022-09-27T21:36:34.375Z,99558.44
2022-09-27T21:39:09.187Z,99557.03
2022-09-27T21:41:42.134Z,99549.81
2022-09-27T21:44:15.037Z,99553.41
2022-09-27T21:46:50.380Z,99555.38
2022-09-27T21:49:24.154Z,99553.84
2022-09-27T21:51:56.848Z,99564.50
2022-09-27T21:54:29.646Z,99570.78
2022-09-27T21:57:02.755Z,99576.69
2022-09-27T21:59:35.258Z,99576.28
2022-09-27T22:02:09.410Z,99585.31
2022-09-27T22:04:42.497Z,99590.72
2022-09-27T22:07:14.990Z,99605.38
2022-09-27T22:09:47.703Z,99599.34
2022-09-27T22:12:20.370Z,99593.41
2022-09-27T22:14:53.033Z,99596.47
2022-09-27T22:17:27.152Z,99591.00
2022-09-27T22:19:59.878Z,99590.88
2022-09-27T22:22:32.531Z,99580.00
2022-09-27T22:25:05.737Z,99572.94
2022-09-27T22:27:38.489Z,99587.00
2022-09-27T22:30:12.213Z,99591.22
2022-09-27T22:32:47.614Z,99596.47
2022-09-27T22:35:20.518Z,99606.63
2022-09-27T22:37:53.548Z,99590.53
2022-09-27T22:40:26.295Z,99586.22
2022-09-27T22:42:59.390Z,99596.75
2022-09-27T22:45:32.080Z,99587.44
2022-09-27T22:48:06.201Z,99583.09
2022-09-27T22:50:39.883Z,99584.66
2022-09-27T22:53:13.509Z,99575.25
2022-09-27T22:56:00.656Z,99568.50
2022-09-27T22:58:37.072Z,99563.34
2022-09-27T23:01:11.381Z,99570.41
2022-09-27T23:03:46.410Z,99560.38
2022-09-27T23:06:20.999Z,99559.59
2022-09-27T23:08:53.923Z,99558.38
2022-09-27T23:11:26.687Z,99555.63
2022-09-27T23:13:59.424Z,99555.94
2022-09-27T23:16:34.545Z,99554.00
2022-09-27T23:19:09.787Z,99546.94
2022-09-27T23:21:42.829Z,99544.56
2022-09-27T23:24:15.439Z,99544.69
2022-09-27T23:27:08.938Z,99536.56
2022-09-27T23:29:41.585Z,99544.31
2022-09-27T23:32:14.433Z,99543.63
2022-09-27T23:34:48.412Z,99543.19
2022-09-27T23:37:21.381Z,99543.25
2022-09-27T23:39:53.987Z,99543.63
2022-09-27T23:42:27.355Z,99547.16
2022-09-27T23:45:00.518Z,99552.31
2022-09-27T23:47:33.761Z,99545.63
2022-09-27T23:50:10.143Z,99548.38
2022-09-27T23:52:44.585Z,99544.84
2022-09-27T23:55:17.472Z,99541.78
2022-09-27T23:57:50.205Z,99531.97
